sensor_id;sensor_type;location;lat;lon;timestamp;temperature;humidity
12578;DHT22;6354;51.026;8.968;2023-04-25T00:01:42;5.10;99.90
12578;DHT22;6354;51.026;8.968;2023-04-25T00:04:10;5.10;99.90
12578;DHT22;6354;51.026;8.968;2023-04-25T00:06:39;5.00;99.90
12578;DHT22;6354;51.026;8.968;2023-04-25T00:09:08;5.00;99.90
12578;DHT22;6354;51.026;8.968;2023-04-25T00:11:37;5.00;99.90
12578;DHT22;6354;51.026;8.968;2023-04-25T00:14:05;5.00;99.90
12578;DHT22;6354;51.026;8.968;2023-04-25T00:16:33;4.90;99.90
12578;DHT22;6354;51.026;8.968;2023-04-25T00:19:02;4.90;99.90
12578;DHT22;6354;51.026;8.968;2023-04-25T00:21:31;4.90;99.90
12578;DHT22;6354;51.026;8.968;2023-04-25T00:23:59;4.90;99.90
12578;DHT22;6354;51.026;8.968;2023-04-25T00:26:29;4.90;99.90
12578;DHT22;6354;51.026;8.968;2023-04-25T00:28:57;4.80;99.90
12578;DHT22;6354;51.026;8.968;2023-04-25T00:31:25;4.80;99.90
12578;DHT22;6354;51.026;8.968;2023-04-25T00:33:53;4.80;99.90
12578;DHT22;6354;51.026;8.968;2023-04-25T00:36:21;4.80;99.90
12578;DHT22;6354;51.026;8.968;2023-04-25T00:38:49;4.80;99.90
12578;DHT22;6354;51.026;8.968;2023-04-25T00:41:17;4.70;99.90
12578;DHT22;6354;51.026;8.968;2023-04-25T00:43:48;4.70;99.90
12578;DHT22;6354;51.026;8.968;2023-04-25T00:46:16;4.70;99.90
12578;DHT22;6354;51.026;8.968;2023-04-25T00:48:44;4.70;99.90
12578;DHT22;6354;51.026;8.968;2023-04-25T00:51:16;4.70;99.90
12578;DHT22;6354;51.026;8.968;2023-04-25T00:53:47;4.60;99.90
12578;DHT22;6354;51.026;8.968;2023-04-25T00:56:17;4.60;99.90
12578;DHT22;6354;51.026;8.968;2023-04-25T00:58:48;4.60;99.90
12578;DHT22;6354;51.026;8.968;2023-04-25T01:01:16;4.60;99.90
12578;DHT22;6354;51.026;8.968;2023-04-25T01:03:46;4.50;99.90
12578;DHT22;6354;51.026;8.968;2023-04-25T01:06:17;4.40;99.90
12578;DHT22;6354;51.026;8.968;2023-04-25T01:08:45;4.40;99.90
12578;DHT22;6354;51.026;8.968;2023-04-25T01:11:13;4.40;99.90
12578;DHT22;6354;51.026;8.968;2023-04-25T01:13:41;4.30;99.90
12578;DHT22;6354;51.026;8.968;2023-04-25T01:16:10;4.30;99.90
12578;DHT22;6354;51.026;8.968;2023-04-25T01:18:39;4.30;99.90
12578;DHT22;6354;51.026;8.968;2023-04-25T01:21:10;4.30;99.90
12578;DHT22;6354;51.026;8.968;2023-04-25T01:23:40;4.30;99.90
12578;DHT22;6354;51.026;8.968;2023-04-25T01:26:09;4.20;99.90
12578;DHT22;6354;51.026;8.968;2023-04-25T01:28:38;4.20;99.90
12578;DHT22;6354;51.026;8.968;2023-04-25T01:31:08;4.20;99.90
12578;DHT22;6354;51.026;8.968;2023-04-25T01:33:36;4.20;99.90
12578;DHT22;6354;51.026;8.968;2023-04-25T01:36:05;4.20;99.90
12578;DHT22;6354;51.026;8.968;2023-04-25T01:38:35;4.10;99.90
12578;DHT22;6354;51.026;8.968;2023-04-25T01:41:03;4.10;99.90
12578;DHT22;6354;51.026;8.968;2023-04-25T01:43:31;4.10;99.90
12578;DHT22;6354;51.026;8.968;2023-04-25T01:45:59;4.10;99.90
12578;DHT22;6354;51.026;8.968;2023-04-25T01:48:28;4.00;99.90
12578;DHT22;6354;51.026;8.968;2023-04-25T01:50:55;4.00;99.90
12578;DHT22;6354;51.026;8.968;2023-04-25T01:53:24;4.00;99.90
12578;DHT22;6354;51.026;8.968;2023-04-25T01:55:54;4.00;99.90
12578;DHT22;6354;51.026;8.968;2023-04-25T01:58:22;4.00;99.90
12578;DHT22;6354;51.026;8.968;2023-04-25T02:00:50;3.90;99.90
12578;DHT22;6354;51.026;8.968;2023-04-25T02:03:18;3.90;99.90
12578;DHT22;6354;51.026;8.968;2023-04-25T02:05:46;3.90;99.90
12578;DHT22;6354;51.026;8.968;2023-04-25T02:08:14;3.90;99.90
12578;DHT22;6354;51.026;8.968;2023-04-25T02:10:42;3.90;99.90
12578;DHT22;6354;51.026;8.968;2023-04-25T02:13:11;3.80;99.90
12578;DHT22;6354;51.026;8.968;2023-04-25T02:15:39;3.90;99.90
12578;DHT22;6354;51.026;8.968;2023-04-25T02:18:08;3.80;99.90
12578;DHT22;6354;51.026;8.968;2023-04-25T02:20:37;3.80;99.90
12578;DHT22;6354;51.026;8.968;2023-04-25T02:23:05;3.70;99.90
12578;DHT22;6354;51.026;8.968;2023-04-25T02:25:33;3.60;99.90
12578;DHT22;6354;51.026;8.968;2023-04-25T02:28:01;3.60;99.90
12578;DHT22;6354;51.026;8.968;2023-04-25T02:30:30;3.60;99.90
12578;DHT22;6354;51.026;8.968;2023-04-25T02:32:59;3.60;99.90
12578;DHT22;6354;51.026;8.968;2023-04-25T02:35:27;3.60;99.90
12578;DHT22;6354;51.026;8.968;2023-04-25T02:37:55;3.50;99.90
12578;DHT22;6354;51.026;8.968;2023-04-25T02:40:23;3.50;99.90
12578;DHT22;6354;51.026;8.968;2023-04-25T02:42:51;3.60;99.90
12578;DHT22;6354;51.026;8.968;2023-04-25T02:45:19;3.60;99.90
12578;DHT22;6354;51.026;8.968;2023-04-25T02:47:48;3.70;99.90
12578;DHT22;6354;51.026;8.968;2023-04-25T02:50:17;3.80;99.90
12578;DHT22;6354;51.026;8.968;2023-04-25T02:52:45;3.80;99.90
12578;DHT22;6354;51.026;8.968;2023-04-25T02:55:13;3.90;99.90
12578;DHT22;6354;51.026;8.968;2023-04-25T02:57:42;4.00;99.90
12578;DHT22;6354;51.026;8.968;2023-04-25T03:00:11;4.10;99.90
12578;DHT22;6354;51.026;8.968;2023-04-25T03:02:41;4.10;99.90
12578;DHT22;6354;51.026;8.968;2023-04-25T03:05:10;4.20;99.90
12578;DHT22;6354;51.026;8.968;2023-04-25T03:07:38;4.20;99.90
12578;DHT22;6354;51.026;8.968;2023-04-25T03:10:07;4.30;99.90
12578;DHT22;6354;51.026;8.968;2023-04-25T03:12:35;4.20;99.90
12578;DHT22;6354;51.026;8.968;2023-04-25T03:15:04;4.30;99.90
12578;DHT22;6354;51.026;8.968;2023-04-25T03:17:32;4.30;99.90
12578;DHT22;6354;51.026;8.968;2023-04-25T03:20:01;4.40;99.90
12578;DHT22;6354;51.026;8.968;2023-04-25T03:22:31;4.40;99.90
12578;DHT22;6354;51.026;8.968;2023-04-25T03:24:59;4.40;99.90
12578;DHT22;6354;51.026;8.968;2023-04-25T03:27:27;4.50;99.90
12578;DHT22;6354;51.026;8.968;2023-04-25T03:29:55;4.60;99.90
12578;DHT22;6354;51.026;8.968;2023-04-25T03:32:24;4.60;99.90
12578;DHT22;6354;51.026;8.968;2023-04-25T03:34:52;4.60;99.90
12578;DHT22;6354;51.026;8.968;2023-04-25T03:37:20;4.60;99.90
12578;DHT22;6354;51.026;8.968;2023-04-25T03:39:49;4.70;99.90
12578;DHT22;6354;51.026;8.968;2023-04-25T03:42:17;4.70;99.90
12578;DHT22;6354;51.026;8.968;2023-04-25T03:44:46;4.60;99.90
12578;DHT22;6354;51.026;8.968;2023-04-25T03:47:14;4.60;99.90
12578;DHT22;6354;51.026;8.968;2023-04-25T03:49:42;4.60;99.90
12578;DHT22;6354;51.026;8.968;2023-04-25T03:52:11;4.50;99.90
12578;DHT22;6354;51.026;8.968;2023-04-25T03:54:39;4.50;99.90
12578;DHT22;6354;51.026;8.968;2023-04-25T03:57:08;4.50;99.90
12578;DHT22;6354;51.026;8.968;2023-04-25T03:59:37;4.50;99.90
12578;DHT22;6354;51.026;8.968;2023-04-25T04:02:05;4.50;99.90
12578;DHT22;6354;51.026;8.968;2023-04-25T04:04:33;4.50;99.90
12578;DHT22;6354;51.026;8.968;2023-04-25T04:07:01;4.50;99.90
12578;DHT22;6354;51.026;8.968;2023-04-25T04:09:29;4.60;99.90
12578;DHT22;6354;51.026;8.968;2023-04-25T04:11:57;4.60;99.90
12578;DHT22;6354;51.026;8.968;2023-04-25T04:14:26;4.70;99.90
12578;DHT22;6354;51.026;8.968;2023-04-25T04:16:54;4.80;99.90
12578;DHT22;6354;51.026;8.968;2023-04-25T04:19:22;4.80;99.90
12578;DHT22;6354;51.026;8.968;2023-04-25T04:21:50;4.80;99.90
12578;DHT22;6354;51.026;8.968;2023-04-25T04:24:18;4.90;99.90
12578;DHT22;6354;51.026;8.968;2023-04-25T04:26:46;5.00;99.90
12578;DHT22;6354;51.026;8.968;2023-04-25T04:29:14;5.00;99.90
12578;DHT22;6354;51.026;8.968;2023-04-25T04:31:49;5.10;99.90
12578;DHT22;6354;51.026;8.968;2023-04-25T04:34:18;5.10;99.90
12578;DHT22;6354;51.026;8.968;2023-04-25T04:36:46;5.10;99.90
12578;DHT22;6354;51.026;8.968;2023-04-25T04:39:14;5.10;99.90
12578;DHT22;6354;51.026;8.968;2023-04-25T04:41:42;5.20;99.90
12578;DHT22;6354;51.026;8.968;2023-04-25T04:44:10;5.20;99.90
12578;DHT22;6354;51.026;8.968;2023-04-25T04:46:39;5.30;99.90
12578;DHT22;6354;51.026;8.968;2023-04-25T04:49:10;5.30;99.90
12578;DHT22;6354;51.026;8.968;2023-04-25T04:51:39;5.30;99.90
12578;DHT22;6354;51.026;8.968;2023-04-25T04:54:07;5.40;99.90
12578;DHT22;6354;51.026;8.968;2023-04-25T04:56:35;5.40;99.90
12578;DHT22;6354;51.026;8.968;2023-04-25T04:59:03;5.40;99.90
12578;DHT22;6354;51.026;8.968;2023-04-25T05:01:31;5.50;99.90
12578;DHT22;6354;51.026;8.968;2023-04-25T05:03:59;5.60;99.90
12578;DHT22;6354;51.026;8.968;2023-04-25T05:06:30;5.60;99.90
12578;DHT22;6354;51.026;8.968;2023-04-25T05:08:58;5.60;99.90
12578;DHT22;6354;51.026;8.968;2023-04-25T05:11:26;5.70;99.90
12578;DHT22;6354;51.026;8.968;2023-04-25T05:13:54;5.70;99.90
12578;DHT22;6354;51.026;8.968;2023-04-25T05:16:22;5.70;99.90
12578;DHT22;6354;51.026;8.968;2023-04-25T05:18:50;5.70;99.90
12578;DHT22;6354;51.026;8.968;2023-04-25T05:21:18;5.70;99.90
12578;DHT22;6354;51.026;8.968;2023-04-25T05:23:48;5.80;99.90
12578;DHT22;6354;51.026;8.968;2023-04-25T05:26:16;5.80;99.90
12578;DHT22;6354;51.026;8.968;2023-04-25T05:28:44;5.80;99.90
12578;DHT22;6354;51.026;8.968;2023-04-25T05:31:12;5.80;99.90
12578;DHT22;6354;51.026;8.968;2023-04-25T05:33:40;6.10;99.90
12578;DHT22;6354;51.026;8.968;2023-04-25T05:36:09;6.10;99.90
12578;DHT22;6354;51.026;8.968;2023-04-25T05:38:37;6.30;99.90
12578;DHT22;6354;51.026;8.968;2023-04-25T05:41:06;6.50;99.90
12578;DHT22;6354;51.026;8.968;2023-04-25T05:43:34;6.60;99.90
12578;DHT22;6354;51.026;8.968;2023-04-25T05:46:02;6.70;99.90
12578;DHT22;6354;51.026;8.968;2023-04-25T05:48:31;6.70;99.90
12578;DHT22;6354;51.026;8.968;2023-04-25T05:50:59;6.80;99.90
12578;DHT22;6354;51.026;8.968;2023-04-25T05:53:27;7.00;99.90
12578;DHT22;6354;51.026;8.968;2023-04-25T05:55:55;7.00;99.90
12578;DHT22;6354;51.026;8.968;2023-04-25T05:58:24;7.00;99.90
12578;DHT22;6354;51.026;8.968;2023-04-25T06:00:52;7.00;99.90
12578;DHT22;6354;51.026;8.968;2023-04-25T06:03:21;7.00;99.90
12578;DHT22;6354;51.026;8.968;2023-04-25T06:05:49;7.00;99.90
12578;DHT22;6354;51.026;8.968;2023-04-25T06:08:17;7.10;99.90
12578;DHT22;6354;51.026;8.968;2023-04-25T06:10:45;7.10;99.90
12578;DHT22;6354;51.026;8.968;2023-04-25T06:13:13;7.20;99.90
12578;DHT22;6354;51.026;8.968;2023-04-25T06:15:43;7.20;99.90
12578;DHT22;6354;51.026;8.968;2023-04-25T06:18:11;7.20;99.90
12578;DHT22;6354;51.026;8.968;2023-04-25T06:20:39;7.20;99.90
12578;DHT22;6354;51.026;8.968;2023-04-25T06:23:07;7.20;99.90
12578;DHT22;6354;51.026;8.968;2023-04-25T06:25:35;7.20;99.90
12578;DHT22;6354;51.026;8.968;2023-04-25T06:28:03;7.30;99.90
12578;DHT22;6354;51.026;8.968;2023-04-25T06:30:31;7.30;99.90
12578;DHT22;6354;51.026;8.968;2023-04-25T06:33:00;7.40;99.90
12578;DHT22;6354;51.026;8.968;2023-04-25T06:35:28;7.50;99.90
12578;DHT22;6354;51.026;8.968;2023-04-25T06:37:56;7.60;99.90
12578;DHT22;6354;51.026;8.968;2023-04-25T06:40:24;7.60;99.90
12578;DHT22;6354;51.026;8.968;2023-04-25T06:42:52;7.60;99.90
12578;DHT22;6354;51.026;8.968;2023-04-25T06:45:20;7.70;99.90
12578;DHT22;6354;51.026;8.968;2023-04-25T06:47:48;7.60;99.90
12578;DHT22;6354;51.026;8.968;2023-04-25T06:50:18;7.60;99.90
12578;DHT22;6354;51.026;8.968;2023-04-25T06:52:46;7.70;99.90
12578;DHT22;6354;51.026;8.968;2023-04-25T06:55:14;7.70;99.90
12578;DHT22;6354;51.026;8.968;2023-04-25T06:57:42;7.80;99.90
12578;DHT22;6354;51.026;8.968;2023-04-25T07:00:11;7.80;99.90
12578;DHT22;6354;51.026;8.968;2023-04-25T07:02:39;7.80;99.90
12578;DHT22;6354;51.026;8.968;2023-04-25T07:05:09;7.90;99.90
12578;DHT22;6354;51.026;8.968;2023-04-25T07:07:38;8.00;99.90
12578;DHT22;6354;51.026;8.968;2023-04-25T07:10:07;8.20;99.90
12578;DHT22;6354;51.026;8.968;2023-04-25T07:12:35;8.60;99.90
12578;DHT22;6354;51.026;8.968;2023-04-25T07:15:04;8.70;99.90
12578;DHT22;6354;51.026;8.968;2023-04-25T07:17:34;8.90;99.90
12578;DHT22;6354;51.026;8.968;2023-04-25T07:20:03;8.90;99.90
12578;DHT22;6354;51.026;8.968;2023-04-25T07:22:32;8.80;99.90
12578;DHT22;6354;51.026;8.968;2023-04-25T07:25:05;8.70;99.90
12578;DHT22;6354;51.026;8.968;2023-04-25T07:27:33;8.60;99.90
12578;DHT22;6354;51.026;8.968;2023-04-25T07:30:01;8.50;99.90
12578;DHT22;6354;51.026;8.968;2023-04-25T07:32:30;8.70;99.90
12578;DHT22;6354;51.026;8.968;2023-04-25T07:34:58;8.90;99.90
12578;DHT22;6354;51.026;8.968;2023-04-25T07:37:26;9.20;99.90
12578;DHT22;6354;51.026;8.968;2023-04-25T07:39:54;9.30;99.90
12578;DHT22;6354;51.026;8.968;2023-04-25T07:42:23;9.30;99.90
12578;DHT22;6354;51.026;8.968;2023-04-25T07:44:51;9.10;99.90
12578;DHT22;6354;51.026;8.968;2023-04-25T07:47:19;8.90;99.90
12578;DHT22;6354;51.026;8.968;2023-04-25T07:49:47;8.70;99.90
12578;DHT22;6354;51.026;8.968;2023-04-25T07:52:15;8.60;99.90
12578;DHT22;6354;51.026;8.968;2023-04-25T07:54:43;8.70;99.90
12578;DHT22;6354;51.026;8.968;2023-04-25T07:57:11;8.90;99.90
12578;DHT22;6354;51.026;8.968;2023-04-25T07:59:42;9.10;99.90
12578;DHT22;6354;51.026;8.968;2023-04-25T08:02:10;9.20;99.90
12578;DHT22;6354;51.026;8.968;2023-04-25T08:04:38;9.50;99.90
12578;DHT22;6354;51.026;8.968;2023-04-25T08:07:06;10.10;99.90
12578;DHT22;6354;51.026;8.968;2023-04-25T08:09:34;10.50;99.90
12578;DHT22;6354;51.026;8.968;2023-04-25T08:12:03;11.00;99.90
12578;DHT22;6354;51.026;8.968;2023-04-25T08:14:31;11.00;99.90
12578;DHT22;6354;51.026;8.968;2023-04-25T08:17:04;11.10;99.90
12578;DHT22;6354;51.026;8.968;2023-04-25T08:19:32;10.80;99.90
12578;DHT22;6354;51.026;8.968;2023-04-25T08:22:00;10.50;99.90
12578;DHT22;6354;51.026;8.968;2023-04-25T08:24:28;10.10;99.90
12578;DHT22;6354;51.026;8.968;2023-04-25T08:26:56;9.70;99.90
12578;DHT22;6354;51.026;8.968;2023-04-25T08:29:25;9.70;99.90
12578;DHT22;6354;51.026;8.968;2023-04-25T08:31:55;9.70;99.90
12578;DHT22;6354;51.026;8.968;2023-04-25T08:34:24;9.90;99.90
12578;DHT22;6354;51.026;8.968;2023-04-25T08:36:53;10.00;99.90
12578;DHT22;6354;51.026;8.968;2023-04-25T08:39:21;10.20;99.90
12578;DHT22;6354;51.026;8.968;2023-04-25T08:41:49;10.20;99.90
12578;DHT22;6354;51.026;8.968;2023-04-25T08:44:19;10.00;99.90
12578;DHT22;6354;51.026;8.968;2023-04-25T08:46:49;9.90;99.90
12578;DHT22;6354;51.026;8.968;2023-04-25T08:49:17;9.90;99.90
12578;DHT22;6354;51.026;8.968;2023-04-25T08:51:47;9.80;99.90
12578;DHT22;6354;51.026;8.968;2023-04-25T08:54:18;9.90;99.90
12578;DHT22;6354;51.026;8.968;2023-04-25T08:57:02;9.90;99.90
12578;DHT22;6354;51.026;8.968;2023-04-25T08:59:31;10.30;99.90
12578;DHT22;6354;51.026;8.968;2023-04-25T09:02:01;10.60;99.90
12578;DHT22;6354;51.026;8.968;2023-04-25T09:04:30;10.90;99.90
12578;DHT22;6354;51.026;8.968;2023-04-25T09:07:00;11.00;99.90
12578;DHT22;6354;51.026;8.968;2023-04-25T09:09:29;11.00;99.90
12578;DHT22;6354;51.026;8.968;2023-04-25T09:11:57;11.00;99.90
12578;DHT22;6354;51.026;8.968;2023-04-25T09:14:26;11.10;99.90
12578;DHT22;6354;51.026;8.968;2023-04-25T09:17:04;11.20;99.90
12578;DHT22;6354;51.026;8.968;2023-04-25T09:19:36;11.20;99.90
12578;DHT22;6354;51.026;8.968;2023-04-25T09:22:09;11.10;99.90
12578;DHT22;6354;51.026;8.968;2023-04-25T09:24:38;10.70;99.90
12578;DHT22;6354;51.026;8.968;2023-04-25T09:27:08;10.40;99.90
12578;DHT22;6354;51.026;8.968;2023-04-25T09:29:38;10.30;99.90
12578;DHT22;6354;51.026;8.968;2023-04-25T09:32:12;10.40;99.90
12578;DHT22;6354;51.026;8.968;2023-04-25T09:34:41;10.50;99.90
12578;DHT22;6354;51.026;8.968;2023-04-25T09:37:11;10.50;99.90
12578;DHT22;6354;51.026;8.968;2023-04-25T09:39:39;10.30;99.90
12578;DHT22;6354;51.026;8.968;2023-04-25T09:42:09;10.30;99.90
12578;DHT22;6354;51.026;8.968;2023-04-25T09:44:37;10.20;99.90
12578;DHT22;6354;51.026;8.968;2023-04-25T09:47:10;10.20;99.90
12578;DHT22;6354;51.026;8.968;2023-04-25T09:49:40;10.20;99.90
12578;DHT22;6354;51.026;8.968;2023-04-25T09:52:14;10.30;99.90
12578;DHT22;6354;51.026;8.968;2023-04-25T09:54:42;10.30;99.90
12578;DHT22;6354;51.026;8.968;2023-04-25T09:57:12;10.50;99.90
12578;DHT22;6354;51.026;8.968;2023-04-25T09:59:43;10.80;99.90
12578;DHT22;6354;51.026;8.968;2023-04-25T10:02:12;10.80;99.90
12578;DHT22;6354;51.026;8.968;2023-04-25T10:04:41;11.00;99.90
12578;DHT22;6354;51.026;8.968;2023-04-25T10:07:11;11.00;99.90
12578;DHT22;6354;51.026;8.968;2023-04-25T10:09:40;11.00;99.90
12578;DHT22;6354;51.026;8.968;2023-04-25T10:12:08;11.00;99.90
12578;DHT22;6354;51.026;8.968;2023-04-25T10:14:37;11.10;99.90
12578;DHT22;6354;51.026;8.968;2023-04-25T10:17:07;11.20;99.90
12578;DHT22;6354;51.026;8.968;2023-04-25T10:19:35;11.30;99.90
12578;DHT22;6354;51.026;8.968;2023-04-25T10:22:07;11.30;99.90
12578;DHT22;6354;51.026;8.968;2023-04-25T10:24:37;11.40;99.90
12578;DHT22;6354;51.026;8.968;2023-04-25T10:27:06;11.80;99.90
12578;DHT22;6354;51.026;8.968;2023-04-25T10:29:35;12.20;99.90
12578;DHT22;6354;51.026;8.968;2023-04-25T10:32:04;12.00;99.90
12578;DHT22;6354;51.026;8.968;2023-04-25T10:34:40;11.80;99.90
12578;DHT22;6354;51.026;8.968;2023-04-25T10:37:11;11.30;99.90
12578;DHT22;6354;51.026;8.968;2023-04-25T10:39:41;10.60;99.90
12578;DHT22;6354;51.026;8.968;2023-04-25T10:42:10;10.50;99.90
12578;DHT22;6354;51.026;8.968;2023-04-25T10:44:39;10.40;99.90
12578;DHT22;6354;51.026;8.968;2023-04-25T10:47:07;10.40;99.90
12578;DHT22;6354;51.026;8.968;2023-04-25T10:49:38;10.40;99.90
12578;DHT22;6354;51.026;8.968;2023-04-25T10:52:26;10.50;99.90
12578;DHT22;6354;51.026;8.968;2023-04-25T10:55:03;10.60;99.90
12578;DHT22;6354;51.026;8.968;2023-04-25T10:57:35;10.80;99.90
12578;DHT22;6354;51.026;8.968;2023-04-25T11:00:09;10.80;99.90
12578;DHT22;6354;51.026;8.968;2023-04-25T11:02:41;11.10;99.90
12578;DHT22;6354;51.026;8.968;2023-04-25T11:05:19;11.20;99.90
12578;DHT22;6354;51.026;8.968;2023-04-25T11:07:51;11.30;99.90
12578;DHT22;6354;51.026;8.968;2023-04-25T11:10:34;11.60;99.90
12578;DHT22;6354;51.026;8.968;2023-04-25T11:13:03;12.00;99.90
12578;DHT22;6354;51.026;8.968;2023-04-25T11:15:31;12.30;99.90
12578;DHT22;6354;51.026;8.968;2023-04-25T11:17:59;12.60;99.90
12578;DHT22;6354;51.026;8.968;2023-04-25T11:20:28;12.60;99.90
12578;DHT22;6354;51.026;8.968;2023-04-25T11:22:57;12.20;99.90
12578;DHT22;6354;51.026;8.968;2023-04-25T11:25:27;11.90;99.90
12578;DHT22;6354;51.026;8.968;2023-04-25T11:27:58;11.80;99.90
12578;DHT22;6354;51.026;8.968;2023-04-25T11:30:28;11.90;99.90
12578;DHT22;6354;51.026;8.968;2023-04-25T11:32:57;12.00;99.90
12578;DHT22;6354;51.026;8.968;2023-04-25T11:35:25;12.20;99.90
12578;DHT22;6354;51.026;8.968;2023-04-25T11:37:53;12.40;99.90
12578;DHT22;6354;51.026;8.968;2023-04-25T11:40:21;12.70;99.90
12578;DHT22;6354;51.026;8.968;2023-04-25T11:42:49;12.90;99.90
12578;DHT22;6354;51.026;8.968;2023-04-25T11:45:23;13.20;99.90
12578;DHT22;6354;51.026;8.968;2023-04-25T11:47:51;13.10;99.90
12578;DHT22;6354;51.026;8.968;2023-04-25T11:50:20;13.00;99.90
12578;DHT22;6354;51.026;8.968;2023-04-25T11:52:48;12.80;99.90
12578;DHT22;6354;51.026;8.968;2023-04-25T11:55:18;12.50;99.90
12578;DHT22;6354;51.026;8.968;2023-04-25T11:57:48;12.00;99.90
12578;DHT22;6354;51.026;8.968;2023-04-25T12:00:19;11.80;99.90
12578;DHT22;6354;51.026;8.968;2023-04-25T12:02:52;11.60;99.90
12578;DHT22;6354;51.026;8.968;2023-04-25T12:05:24;11.50;99.90
12578;DHT22;6354;51.026;8.968;2023-04-25T12:08:10;11.60;99.90
12578;DHT22;6354;51.026;8.968;2023-04-25T12:10:41;11.60;99.90
12578;DHT22;6354;51.026;8.968;2023-04-25T12:13:20;11.50;99.90
12578;DHT22;6354;51.026;8.968;2023-04-25T12:15:49;11.60;99.90
12578;DHT22;6354;51.026;8.968;2023-04-25T12:18:22;11.80;99.90
12578;DHT22;6354;51.026;8.968;2023-04-25T12:20:52;11.90;99.90
12578;DHT22;6354;51.026;8.968;2023-04-25T12:23:25;11.70;99.90
12578;DHT22;6354;51.026;8.968;2023-04-25T12:25:54;11.60;99.90
12578;DHT22;6354;51.026;8.968;2023-04-25T12:28:24;11.50;99.90
12578;DHT22;6354;51.026;8.968;2023-04-25T12:30:58;11.50;99.90
12578;DHT22;6354;51.026;8.968;2023-04-25T12:33:29;11.60;99.90
12578;DHT22;6354;51.026;8.968;2023-04-25T12:35:58;11.60;99.90
12578;DHT22;6354;51.026;8.968;2023-04-25T12:38:28;11.70;99.90
12578;DHT22;6354;51.026;8.968;2023-04-25T12:40:57;11.60;99.90
12578;DHT22;6354;51.026;8.968;2023-04-25T12:43:25;11.70;99.90
12578;DHT22;6354;51.026;8.968;2023-04-25T12:45:55;11.70;99.90
12578;DHT22;6354;51.026;8.968;2023-04-25T12:48:23;12.00;99.90
12578;DHT22;6354;51.026;8.968;2023-04-25T12:50:53;12.20;99.90
12578;DHT22;6354;51.026;8.968;2023-04-25T12:53:22;12.10;99.90
12578;DHT22;6354;51.026;8.968;2023-04-25T12:55:50;12.00;99.90
12578;DHT22;6354;51.026;8.968;2023-04-25T12:58:19;11.80;99.90
12578;DHT22;6354;51.026;8.968;2023-04-25T13:00:47;11.90;99.90
12578;DHT22;6354;51.026;8.968;2023-04-25T13:03:15;12.00;99.90
12578;DHT22;6354;51.026;8.968;2023-04-25T13:05:44;12.40;99.90
12578;DHT22;6354;51.026;8.968;2023-04-25T13:08:14;12.70;99.90
12578;DHT22;6354;51.026;8.968;2023-04-25T13:10:42;12.80;99.90
12578;DHT22;6354;51.026;8.968;2023-04-25T13:13:10;12.80;99.80
12578;DHT22;6354;51.026;8.968;2023-04-25T13:15:38;12.60;99.80
12578;DHT22;6354;51.026;8.968;2023-04-25T13:18:06;12.60;99.90
12578;DHT22;6354;51.026;8.968;2023-04-25T13:20:34;12.60;99.90
12578;DHT22;6354;51.026;8.968;2023-04-25T13:23:02;12.60;99.90
12578;DHT22;6354;51.026;8.968;2023-04-25T13:25:31;12.70;99.90
12578;DHT22;6354;51.026;8.968;2023-04-25T13:27:59;12.70;99.90
12578;DHT22;6354;51.026;8.968;2023-04-25T13:30:27;12.70;99.90
12578;DHT22;6354;51.026;8.968;2023-04-25T13:32:55;12.70;99.90
12578;DHT22;6354;51.026;8.968;2023-04-25T13:35:24;12.70;99.90
12578;DHT22;6354;51.026;8.968;2023-04-25T13:37:52;12.90;99.90
12578;DHT22;6354;51.026;8.968;2023-04-25T13:40:20;13.20;99.90
12578;DHT22;6354;51.026;8.968;2023-04-25T13:42:52;13.40;99.90
12578;DHT22;6354;51.026;8.968;2023-04-25T13:45:20;13.10;99.90
12578;DHT22;6354;51.026;8.968;2023-04-25T13:47:48;12.80;99.90
12578;DHT22;6354;51.026;8.968;2023-04-25T13:50:17;12.50;99.90
12578;DHT22;6354;51.026;8.968;2023-04-25T13:52:45;12.40;99.90
12578;DHT22;6354;51.026;8.968;2023-04-25T13:55:13;12.10;99.90
12578;DHT22;6354;51.026;8.968;2023-04-25T13:57:41;11.90;99.90
12578;DHT22;6354;51.026;8.968;2023-04-25T14:00:12;11.90;99.90
12578;DHT22;6354;51.026;8.968;2023-04-25T14:02:41;11.80;99.90
12578;DHT22;6354;51.026;8.968;2023-04-25T14:05:09;11.80;99.90
12578;DHT22;6354;51.026;8.968;2023-04-25T14:07:37;11.70;99.90
12578;DHT22;6354;51.026;8.968;2023-04-25T14:10:06;11.60;99.90
12578;DHT22;6354;51.026;8.968;2023-04-25T14:12:34;11.60;99.90
12578;DHT22;6354;51.026;8.968;2023-04-25T14:15:03;11.60;99.90
12578;DHT22;6354;51.026;8.968;2023-04-25T14:17:33;11.50;99.90
12578;DHT22;6354;51.026;8.968;2023-04-25T14:20:01;11.60;99.90
12578;DHT22;6354;51.026;8.968;2023-04-25T14:22:29;11.60;99.90
12578;DHT22;6354;51.026;8.968;2023-04-25T14:24:57;11.50;99.90
12578;DHT22;6354;51.026;8.968;2023-04-25T14:27:25;11.50;99.90
12578;DHT22;6354;51.026;8.968;2023-04-25T14:29:55;11.60;99.90
12578;DHT22;6354;51.026;8.968;2023-04-25T14:32:23;11.60;99.90
12578;DHT22;6354;51.026;8.968;2023-04-25T14:34:52;11.80;99.90
12578;DHT22;6354;51.026;8.968;2023-04-25T14:37:20;11.70;99.90
12578;DHT22;6354;51.026;8.968;2023-04-25T14:39:48;11.70;99.90
12578;DHT22;6354;51.026;8.968;2023-04-25T14:42:16;11.60;99.90
12578;DHT22;6354;51.026;8.968;2023-04-25T14:44:44;11.50;99.90
12578;DHT22;6354;51.026;8.968;2023-04-25T14:47:12;11.40;99.90
12578;DHT22;6354;51.026;8.968;2023-04-25T14:49:40;11.40;99.90
12578;DHT22;6354;51.026;8.968;2023-04-25T14:52:10;11.40;99.90
12578;DHT22;6354;51.026;8.968;2023-04-25T14:54:38;11.40;99.90
12578;DHT22;6354;51.026;8.968;2023-04-25T14:57:06;11.30;99.90
12578;DHT22;6354;51.026;8.968;2023-04-25T14:59:34;11.40;99.90
12578;DHT22;6354;51.026;8.968;2023-04-25T15:02:02;11.40;99.90
12578;DHT22;6354;51.026;8.968;2023-04-25T15:04:30;11.50;99.90
12578;DHT22;6354;51.026;8.968;2023-04-25T15:06:59;11.50;99.90
12578;DHT22;6354;51.026;8.968;2023-04-25T15:09:29;11.70;99.90
12578;DHT22;6354;51.026;8.968;2023-04-25T15:11:57;11.70;99.90
12578;DHT22;6354;51.026;8.968;2023-04-25T15:14:25;11.70;99.90
12578;DHT22;6354;51.026;8.968;2023-04-25T15:16:53;11.70;99.90
12578;DHT22;6354;51.026;8.968;2023-04-25T15:19:21;11.70;99.90
12578;DHT22;6354;51.026;8.968;2023-04-25T15:21:50;11.60;99.90
12578;DHT22;6354;51.026;8.968;2023-04-25T15:24:18;11.60;99.90
12578;DHT22;6354;51.026;8.968;2023-04-25T15:26:47;11.60;99.90
12578;DHT22;6354;51.026;8.968;2023-04-25T15:29:15;11.70;99.90
12578;DHT22;6354;51.026;8.968;2023-04-25T15:31:43;11.70;99.90
12578;DHT22;6354;51.026;8.968;2023-04-25T15:34:11;11.70;99.90
12578;DHT22;6354;51.026;8.968;2023-04-25T15:36:39;11.60;99.90
12578;DHT22;6354;51.026;8.968;2023-04-25T15:39:07;11.70;99.90
12578;DHT22;6354;51.026;8.968;2023-04-25T15:41:36;11.60;99.90
12578;DHT22;6354;51.026;8.968;2023-04-25T15:44:05;11.50;99.90
12578;DHT22;6354;51.026;8.968;2023-04-25T15:46:34;11.40;99.90
12578;DHT22;6354;51.026;8.968;2023-04-25T15:49:02;11.30;99.90
12578;DHT22;6354;51.026;8.968;2023-04-25T15:51:30;11.30;99.90
12578;DHT22;6354;51.026;8.968;2023-04-25T15:53:59;11.30;99.90
12578;DHT22;6354;51.026;8.968;2023-04-25T15:56:28;11.30;99.90
12578;DHT22;6354;51.026;8.968;2023-04-25T15:58:56;11.30;99.90
12578;DHT22;6354;51.026;8.968;2023-04-25T16:01:25;11.30;99.90
12578;DHT22;6354;51.026;8.968;2023-04-25T16:03:56;11.40;99.90
12578;DHT22;6354;51.026;8.968;2023-04-25T16:06:25;11.20;99.90